Las Piedras, Puerto Rico
Current Conditions -  °F | °C
As of 3:53 PM on Wednesday 26 Nov 2014 (Local Time) from TJNR Reporting Station
Scattered Clouds Scattered Clouds  
Wind Chill: 80°   Ceiling: Unl
Heat Index: 84°   Visibility: 10mi
Dew Point: 73°   Wind: 6mph
Humidity: 79%   Direction: 10°N
Pressure: 30"   Gusts: NA
Location:  18.18°N, 65.87°W
Report Text: TJNR 261953Z AUTO 01005KT 10SM FEW026 SCT039 SCT050 27/23 A3000 RMK AO2 SLP157 T02670228 $
Loading
Personal Weather Stations






























Interactive Weather Map New forecast layout! Learn more

10-Day Weather Forecast

Advertisements
Track Severe Weather on mobile